Cherokee, Kentucky
Current Conditions -  °F | °C
As of 4:51 AM on Sunday 28 Dec 2014 (Local Time) from KHTS Reporting Station
Overcast Overcast  
Wind Chill: 47°   Ceiling: 1900
Heat Index: 49°   Visibility: 10mi
Dew Point: 45°   Wind: 6mph
Humidity: 86%   Direction: 230°SW
Pressure: 30.01"   Gusts: NA
Location:  38.152°N, 82.7951°W
Report Text: KHTS 280951Z 23005KT 10SM OVC019 09/07 A3001 RMK AO2 SLP162 T00940072
Loading
Personal Weather Stations






























Interactive Weather Map New forecast layout! Learn more

10-Day Weather Forecast

Advertisements
Track Severe Weather on mobile